Bao An Cheng 69 — BVBD5 — position and weather

sailwx.info

Track history (hours):
 
Tides and Currents Weather Stations Pressure Air Temp Water Temp Dewpoint Dewpoint Depression Visibility Wind Speed Wind Dir Waves Ship Positions

Bao An Cheng 69

Last reported at 2015-May-22 11:33 UTC. Time now 2015-May-26 15:53 UTC.
Position N 24°36' E 118°44'.

Length 121 m; draft 4.6 m.

Type: Cargo ship. MMSI: 412703090.

Date/timePositionNaut miles runAvg speedWind from/ knotsBaromVisibWave heightAir tempDewpointWater temp
2015-May-22 11:33N 24°36' E 118°44'10 9.8
2015-May-22 10:33N 24°28' E 118°36'10 9.7
2015-May-22 09:33N 24°22' E 118°29'9 9.5
2015-May-22 08:33N 24°16' E 118°20'9 9.5
2015-May-22 07:33N 24°12' E 118°11'9 8.8
2015-May-22 06:33N 24°07' E 118°03'10 9.5
2015-May-22 05:31N 24°01' E 117°55'1310.1
2015-May-22 04:13N 23°52' E 117°44'710.6
2015-May-22 03:33N 23°47' E 117°39'1010.3
2015-May-22 02:33N 23°38' E 117°33'35 8.5
2015-May-21 22:28N 23°22' E 116°59'0 0.1
2015-May-21 21:10N 23°22' E 116°59'1 0.0
2015-May-21 04:24N 23°22' E 116°59'5 5.4
2015-May-21 03:30N 23°18' E 116°55'6 6.1
2015-May-21 02:33N 23°17' E 116°49'8 8.0
2015-May-21 01:33N 23°21' E 116°42'8 8.5
2015-May-21 00:33N 23°24' E 116°33'6 6.0
2015-May-20 23:33N 23°28' E 116°28'3 3.0
2015-May-20 22:33N 23°28' E 116°25'3 3.2
2015-May-20 21:33N 23°31' E 116°23'1 0.1
2015-May-20 14:15N 23°31' E 116°23'0 0.0
2015-May-20 13:15N 23°31' E 116°23'  
2015-May-18 04:32N 23°29' E 116°24'4 3.7
2015-May-18 03:32N 23°27' E 116°28'7 7.3
2015-May-18 02:33N 23°23' E 116°34'9 9.2
2015-May-18 01:33N 23°21' E 116°43'8 7.7
2015-May-18 00:33N 23°16' E 116°50'0 0.5
2015-May-17 23:33N 23°17' E 116°51'0 0.0
2015-May-17 22:33N 23°17' E 116°51'0 0.1
2015-May-17 21:32N 23°16' E 116°51'0 0.1
2015-May-17 20:33N 23°16' E 116°51'0 0.0
2015-May-17 19:33N 23°16' E 116°51'0 0.1
2015-May-17 18:33N 23°16' E 116°51'0 0.2
2015-May-17 17:33N 23°17' E 116°51'0 0.1
2015-May-17 16:33N 23°17' E 116°51'0 0.0
2015-May-17 15:33N 23°17' E 116°51'0 0.0
2015-May-17 14:33N 23°17' E 116°51'0 0.0
2015-May-17 13:32N 23°17' E 116°51'0 0.0
2015-May-17 12:33N 23°17' E 116°51'0 0.0
2015-May-17 11:33N 23°17' E 116°51'0 0.0
2015-May-17 10:32N 23°17' E 116°51'0 0.0
2015-May-17 09:33N 23°17' E 116°51'0 0.1
2015-May-17 08:33N 23°16' E 116°51'0 0.1
2015-May-17 07:33N 23°16' E 116°51'0 0.0
2015-May-17 06:32N 23°16' E 116°51'0 0.1
2015-May-17 05:33N 23°16' E 116°51'36 8.4
2015-May-17 01:15N 23°32' E 117°26'5 7.1
2015-May-17 00:33N 23°35' E 117°31'8 7.7
2015-May-16 23:33N 23°39' E 117°38'8 7.7
2015-May-16 22:33N 23°44' E 117°44'8 8.2
2015-May-16 21:33N 23°49' E 117°52'9 8.7
2015-May-16 20:32N 23°55' E 117°59'9 9.2
2015-May-16 19:33N 24°00' E 118°07'9 9.2
2015-May-16 18:33N 24°06' E 118°15'12 9.3
2015-May-16 17:15N 24°14' E 118°25'19 9.2
2015-May-16 15:10N 24°26' E 118°41'15 8.9
2015-May-16 13:28N 24°36' E 118°53'8 8.3
2015-May-16 12:33N 24°42' E 118°60'40 7.3
2015-May-16 07:05N 25°07' E 119°34'302 8.0
2015-May-14 17:10N 29°28' E 122°24'610.1
2015-May-14 16:33N 29°34' E 122°27'9 9.0
2015-May-14 15:30N 29°42' E 122°32'7 7.6
2015-May-14 14:33N 29°49' E 122°33'5 5.0
2015-May-14 13:33N 29°54' E 122°35'2 1.8
2015-May-14 12:33N 29°52' E 122°34'12 5.4
2015-May-14 10:21N 30°04' E 122°36'87 8.5
2015-May-14 00:05N 31°31' E 122°32'12 7.5
2015-May-13 22:26N 31°44' E 122°33'7 7.9
2015-May-13 21:33N 31°51' E 122°33'8 8.4
2015-May-13 20:34N 31°59' E 122°33'9 8.7
2015-May-13 19:33N 32°08' E 122°33'9 8.8
2015-May-13 18:34N 32°16' E 122°35'10 8.8
2015-May-13 17:28N 32°26' E 122°35'16 8.3
2015-May-13 15:33N 32°42' E 122°35'16 7.5
2015-May-13 13:25N 32°58' E 122°33'7 7.0
2015-May-13 12:22N 33°05' E 122°32'6 7.1
2015-May-13 11:33N 33°11' E 122°32'8 7.5
2015-May-13 10:26N 33°19' E 122°31'7 7.9
2015-May-13 09:32N 33°26' E 122°30'9 8.3
2015-May-13 08:26N 33°35' E 122°28'  
Track history (hours):
 
Tides and Currents Weather Stations Pressure Air Temp Water Temp Dewpoint Dewpoint Depression Visibility Wind Speed Wind Dir Waves Ship Positions

Bao An Cheng 69

Last reported at 2015-May-22 11:33 UTC. Time now 2015-May-26 15:53 UTC.
Position N 24°36' E 118°44'.

Length 121 m; draft 4.6 m.

Type: Cargo ship. MMSI: 412703090.

Date/timePositionNaut miles runAvg speedWind from/ knotsBaromVisibWave heightAir tempDewpointWater temp
2015-May-22 11:33N 24°36' E 118°44'10 9.8
2015-May-22 10:33N 24°28' E 118°36'10 9.7
2015-May-22 09:33N 24°22' E 118°29'9 9.5
2015-May-22 08:33N 24°16' E 118°20'9 9.5
2015-May-22 07:33N 24°12' E 118°11'9 8.8
2015-May-22 06:33N 24°07' E 118°03'10 9.5
2015-May-22 05:31N 24°01' E 117°55'1310.1
2015-May-22 04:13N 23°52' E 117°44'710.6
2015-May-22 03:33N 23°47' E 117°39'1010.3
2015-May-22 02:33N 23°38' E 117°33'35 8.5
2015-May-21 22:28N 23°22' E 116°59'0 0.1
2015-May-21 21:10N 23°22' E 116°59'1 0.0
2015-May-21 04:24N 23°22' E 116°59'5 5.4
2015-May-21 03:30N 23°18' E 116°55'6 6.1
2015-May-21 02:33N 23°17' E 116°49'8 8.0
2015-May-21 01:33N 23°21' E 116°42'8 8.5
2015-May-21 00:33N 23°24' E 116°33'6 6.0
2015-May-20 23:33N 23°28' E 116°28'3 3.0
2015-May-20 22:33N 23°28' E 116°25'3 3.2
2015-May-20 21:33N 23°31' E 116°23'1 0.1
2015-May-20 14:15N 23°31' E 116°23'0 0.0
2015-May-20 13:15N 23°31' E 116°23'  
2015-May-18 04:32N 23°29' E 116°24'4 3.7
2015-May-18 03:32N 23°27' E 116°28'7 7.3
2015-May-18 02:33N 23°23' E 116°34'9 9.2
2015-May-18 01:33N 23°21' E 116°43'8 7.7
2015-May-18 00:33N 23°16' E 116°50'0 0.5
2015-May-17 23:33N 23°17' E 116°51'0 0.0
2015-May-17 22:33N 23°17' E 116°51'0 0.1
2015-May-17 21:32N 23°16' E 116°51'0 0.1
2015-May-17 20:33N 23°16' E 116°51'0 0.0
2015-May-17 19:33N 23°16' E 116°51'0 0.1
2015-May-17 18:33N 23°16' E 116°51'0 0.2
2015-May-17 17:33N 23°17' E 116°51'0 0.1
2015-May-17 16:33N 23°17' E 116°51'0 0.0
2015-May-17 15:33N 23°17' E 116°51'0 0.0
2015-May-17 14:33N 23°17' E 116°51'0 0.0
2015-May-17 13:32N 23°17' E 116°51'0 0.0
2015-May-17 12:33N 23°17' E 116°51'0 0.0
2015-May-17 11:33N 23°17' E 116°51'0 0.0
2015-May-17 10:32N 23°17' E 116°51'0 0.0
2015-May-17 09:33N 23°17' E 116°51'0 0.1
2015-May-17 08:33N 23°16' E 116°51'0 0.1
2015-May-17 07:33N 23°16' E 116°51'0 0.0
2015-May-17 06:32N 23°16' E 116°51'0 0.1
2015-May-17 05:33N 23°16' E 116°51'36 8.4
2015-May-17 01:15N 23°32' E 117°26'5 7.1
2015-May-17 00:33N 23°35' E 117°31'8 7.7
2015-May-16 23:33N 23°39' E 117°38'8 7.7
2015-May-16 22:33N 23°44' E 117°44'8 8.2
2015-May-16 21:33N 23°49' E 117°52'9 8.7
2015-May-16 20:32N 23°55' E 117°59'9 9.2
2015-May-16 19:33N 24°00' E 118°07'9 9.2
2015-May-16 18:33N 24°06' E 118°15'12 9.3
2015-May-16 17:15N 24°14' E 118°25'19 9.2
2015-May-16 15:10N 24°26' E 118°41'15 8.9
2015-May-16 13:28N 24°36' E 118°53'8 8.3
2015-May-16 12:33N 24°42' E 118°60'40 7.3
2015-May-16 07:05N 25°07' E 119°34'302 8.0
2015-May-14 17:10N 29°28' E 122°24'610.1
2015-May-14 16:33N 29°34' E 122°27'9 9.0
2015-May-14 15:30N 29°42' E 122°32'7 7.6
2015-May-14 14:33N 29°49' E 122°33'5 5.0
2015-May-14 13:33N 29°54' E 122°35'2 1.8
2015-May-14 12:33N 29°52' E 122°34'12 5.4
2015-May-14 10:21N 30°04' E 122°36'87 8.5
2015-May-14 00:05N 31°31' E 122°32'12 7.5
2015-May-13 22:26N 31°44' E 122°33'7 7.9
2015-May-13 21:33N 31°51' E 122°33'8 8.4
2015-May-13 20:34N 31°59' E 122°33'9 8.7
2015-May-13 19:33N 32°08' E 122°33'9 8.8
2015-May-13 18:34N 32°16' E 122°35'10 8.8
2015-May-13 17:28N 32°26' E 122°35'16 8.3
2015-May-13 15:33N 32°42' E 122°35'16 7.5
2015-May-13 13:25N 32°58' E 122°33'7 7.0
2015-May-13 12:22N 33°05' E 122°32'6 7.1
2015-May-13 11:33N 33°11' E 122°32'8 7.5
2015-May-13 10:26N 33°19' E 122°31'7 7.9
2015-May-13 09:32N 33°26' E 122°30'9 8.3
2015-May-13 08:26N 33°35' E 122°28'  

Dump ship's entire track history